sensor_id;sensor_type;location;lat;lon;timestamp;P1;P2;P0
44881;PMS5003;30612;38.304;23.786;2023-11-21T00:00:36;0.20;0.20;0.00
44881;PMS5003;30612;38.304;23.786;2023-11-21T00:03:05;0.00;0.00;0.00
44881;PMS5003;30612;38.304;23.786;2023-11-21T00:05:33;2.00;2.00;0.20
44881;PMS5003;30612;38.304;23.786;2023-11-21T00:08:02;1.00;1.00;0.00
44881;PMS5003;30612;38.304;23.786;2023-11-21T00:10:29;0.80;0.60;0.00
44881;PMS5003;30612;38.304;23.786;2023-11-21T00:12:56;0.80;0.00;0.00
44881;PMS5003;30612;38.304;23.786;2023-11-21T00:15:23;1.40;1.00;0.00
44881;PMS5003;30612;38.304;23.786;2023-11-21T00:17:50;1.00;1.00;0.00
44881;PMS5003;30612;38.304;23.786;2023-11-21T00:20:17;1.00;1.00;0.00
44881;PMS5003;30612;38.304;23.786;2023-11-21T00:22:45;1.60;1.60;0.00
44881;PMS5003;30612;38.304;23.786;2023-11-21T00:25:12;0.00;0.00;0.00
44881;PMS5003;30612;38.304;23.786;2023-11-21T00:27:42;2.40;1.00;0.00
44881;PMS5003;30612;38.304;23.786;2023-11-21T00:30:09;1.00;1.00;0.00
44881;PMS5003;30612;38.304;23.786;2023-11-21T00:32:37;0.20;0.20;0.00
44881;PMS5003;30612;38.304;23.786;2023-11-21T00:35:05;1.00;1.00;0.00
44881;PMS5003;30612;38.304;23.786;2023-11-21T00:37:32;2.00;2.00;0.80
44881;PMS5003;30612;38.304;23.786;2023-11-21T00:39:59;1.60;1.60;0.60
44881;PMS5003;30612;38.304;23.786;2023-11-21T00:42:29;1.00;1.00;0.00
44881;PMS5003;30612;38.304;23.786;2023-11-21T00:44:56;1.80;1.80;0.00
44881;PMS5003;30612;38.304;23.786;2023-11-21T00:47:24;1.00;1.00;0.00
44881;PMS5003;30612;38.304;23.786;2023-11-21T00:49:51;1.00;1.00;0.00
44881;PMS5003;30612;38.304;23.786;2023-11-21T00:52:18;1.00;0.00;0.00
44881;PMS5003;30612;38.304;23.786;2023-11-21T00:54:45;0.00;0.00;0.00
44881;PMS5003;30612;38.304;23.786;2023-11-21T00:57:14;0.80;0.80;0.00
44881;PMS5003;30612;38.304;23.786;2023-11-21T00:59:41;0.80;0.80;0.00
44881;PMS5003;30612;38.304;23.786;2023-11-21T01:02:09;0.60;0.60;0.00
44881;PMS5003;30612;38.304;23.786;2023-11-21T01:04:37;1.00;1.00;0.00
44881;PMS5003;30612;38.304;23.786;2023-11-21T01:07:04;1.20;1.20;0.60
44881;PMS5003;30612;38.304;23.786;2023-11-21T01:09:32;1.40;1.40;0.80
44881;PMS5003;30612;38.304;23.786;2023-11-21T01:11:59;1.20;1.20;0.60
44881;PMS5003;30612;38.304;23.786;2023-11-21T01:14:27;1.00;1.00;0.20
44881;PMS5003;30612;38.304;23.786;2023-11-21T01:16:56;2.00;2.00;1.00
44881;PMS5003;30612;38.304;23.786;2023-11-21T01:19:24;1.20;1.20;1.00
44881;PMS5003;30612;38.304;23.786;2023-11-21T01:21:51;1.00;1.00;0.80
44881;PMS5003;30612;38.304;23.786;2023-11-21T01:24:20;2.40;1.20;0.40
44881;PMS5003;30612;38.304;23.786;2023-11-21T01:26:47;1.00;1.00;0.40
44881;PMS5003;30612;38.304;23.786;2023-11-21T01:29:14;3.60;3.60;1.80
44881;PMS5003;30612;38.304;23.786;2023-11-21T01:31:41;2.80;1.80;1.00
44881;PMS5003;30612;38.304;23.786;2023-11-21T01:34:09;1.00;1.00;1.00
44881;PMS5003;30612;38.304;23.786;2023-11-21T01:36:36;2.40;2.40;1.00
44881;PMS5003;30612;38.304;23.786;2023-11-21T01:39:04;1.20;1.20;1.00
44881;PMS5003;30612;38.304;23.786;2023-11-21T01:41:35;3.20;2.00;1.00
44881;PMS5003;30612;38.304;23.786;2023-11-21T01:44:02;1.60;1.60;1.00
44881;PMS5003;30612;38.304;23.786;2023-11-21T01:46:30;3.20;2.00;1.00
44881;PMS5003;30612;38.304;23.786;2023-11-21T01:48:57;1.40;1.40;0.60
44881;PMS5003;30612;38.304;23.786;2023-11-21T01:51:24;4.00;4.00;1.00
44881;PMS5003;30612;38.304;23.786;2023-11-21T01:53:54;3.20;3.20;1.00
44881;PMS5003;30612;38.304;23.786;2023-11-21T01:56:21;1.00;1.00;0.00
44881;PMS5003;30612;38.304;23.786;2023-11-21T01:58:48;1.00;1.00;0.40
44881;PMS5003;30612;38.304;23.786;2023-11-21T02:01:16;0.00;0.00;0.00
44881;PMS5003;30612;38.304;23.786;2023-11-21T02:03:45;0.40;0.40;0.00
44881;PMS5003;30612;38.304;23.786;2023-11-21T02:06:12;2.20;1.80;1.00
44881;PMS5003;30612;38.304;23.786;2023-11-21T02:08:40;1.80;1.60;0.00
44881;PMS5003;30612;38.304;23.786;2023-11-21T02:11:10;4.60;1.00;0.00
44881;PMS5003;30612;38.304;23.786;2023-11-21T02:13:40;1.80;0.80;0.00
44881;PMS5003;30612;38.304;23.786;2023-11-21T02:16:10;0.80;0.80;0.00
44881;PMS5003;30612;38.304;23.786;2023-11-21T02:18:39;1.00;1.00;0.00
44881;PMS5003;30612;38.304;23.786;2023-11-21T02:21:07;0.80;0.80;0.00
44881;PMS5003;30612;38.304;23.786;2023-11-21T02:23:34;2.00;2.00;0.00
44881;PMS5003;30612;38.304;23.786;2023-11-21T02:26:02;1.80;1.80;1.00
44881;PMS5003;30612;38.304;23.786;2023-11-21T02:28:31;1.00;1.00;0.00
44881;PMS5003;30612;38.304;23.786;2023-11-21T02:31:00;1.00;1.00;0.00
44881;PMS5003;30612;38.304;23.786;2023-11-21T02:33:29;3.60;1.00;1.00
44881;PMS5003;30612;38.304;23.786;2023-11-21T02:36:00;1.60;1.60;0.00
44881;PMS5003;30612;38.304;23.786;2023-11-21T02:38:28;0.80;0.80;0.00
44881;PMS5003;30612;38.304;23.786;2023-11-21T02:40:56;2.00;0.60;0.00
44881;PMS5003;30612;38.304;23.786;2023-11-21T02:43:25;1.40;1.40;0.60
44881;PMS5003;30612;38.304;23.786;2023-11-21T02:45:52;0.40;0.40;0.00
44881;PMS5003;30612;38.304;23.786;2023-11-21T02:48:19;2.20;2.20;1.00
44881;PMS5003;30612;38.304;23.786;2023-11-21T02:50:47;1.00;1.00;0.00
44881;PMS5003;30612;38.304;23.786;2023-11-21T02:53:14;0.60;0.60;0.00
44881;PMS5003;30612;38.304;23.786;2023-11-21T02:55:41;0.40;0.00;0.00
44881;PMS5003;30612;38.304;23.786;2023-11-21T02:58:08;1.00;1.00;0.00
44881;PMS5003;30612;38.304;23.786;2023-11-21T03:00:36;0.80;0.80;0.00
44881;PMS5003;30612;38.304;23.786;2023-11-21T03:03:03;2.20;1.00;0.00
44881;PMS5003;30612;38.304;23.786;2023-11-21T03:05:31;0.40;0.40;0.00
44881;PMS5003;30612;38.304;23.786;2023-11-21T03:07:58;1.00;1.00;0.00
44881;PMS5003;30612;38.304;23.786;2023-11-21T03:10:25;1.00;1.00;0.00
44881;PMS5003;30612;38.304;23.786;2023-11-21T03:12:52;0.00;0.00;0.00
44881;PMS5003;30612;38.304;23.786;2023-11-21T03:15:20;0.00;0.00;0.00
44881;PMS5003;30612;38.304;23.786;2023-11-21T03:17:47;0.00;0.00;0.00
44881;PMS5003;30612;38.304;23.786;2023-11-21T03:20:16;3.00;1.00;0.00
44881;PMS5003;30612;38.304;23.786;2023-11-21T03:22:43;2.40;2.40;1.00
44881;PMS5003;30612;38.304;23.786;2023-11-21T03:25:11;1.80;0.60;0.00
44881;PMS5003;30612;38.304;23.786;2023-11-21T03:27:38;4.00;4.00;2.20
44881;PMS5003;30612;38.304;23.786;2023-11-21T03:30:07;2.40;2.40;2.00
44881;PMS5003;30612;38.304;23.786;2023-11-21T03:32:35;4.00;4.00;1.60
44881;PMS5003;30612;38.304;23.786;2023-11-21T03:35:03;4.60;3.00;1.00
44881;PMS5003;30612;38.304;23.786;2023-11-21T03:37:33;5.00;4.80;2.20
44881;PMS5003;30612;38.304;23.786;2023-11-21T03:40:02;2.00;2.00;1.00
44881;PMS5003;30612;38.304;23.786;2023-11-21T03:42:31;4.20;4.20;2.00
44881;PMS5003;30612;38.304;23.786;2023-11-21T03:44:58;2.80;2.20;1.00
44881;PMS5003;30612;38.304;23.786;2023-11-21T03:47:28;1.60;1.60;0.40
44881;PMS5003;30612;38.304;23.786;2023-11-21T03:49:56;2.20;2.20;1.00
44881;PMS5003;30612;38.304;23.786;2023-11-21T03:52:23;4.20;4.00;1.80
44881;PMS5003;30612;38.304;23.786;2023-11-21T03:54:51;3.00;3.00;0.60
44881;PMS5003;30612;38.304;23.786;2023-11-21T03:57:18;5.00;3.80;2.40
44881;PMS5003;30612;38.304;23.786;2023-11-21T03:59:45;1.00;1.00;0.00
44881;PMS5003;30612;38.304;23.786;2023-11-21T04:02:12;3.20;3.00;1.00
44881;PMS5003;30612;38.304;23.786;2023-11-21T04:04:40;2.20;2.20;1.00
44881;PMS5003;30612;38.304;23.786;2023-11-21T04:07:07;5.20;5.20;2.80
44881;PMS5003;30612;38.304;23.786;2023-11-21T04:09:34;1.60;1.60;1.00
44881;PMS5003;30612;38.304;23.786;2023-11-21T04:12:03;4.00;4.00;2.20
44881;PMS5003;30612;38.304;23.786;2023-11-21T04:14:30;3.00;3.00;1.20
44881;PMS5003;30612;38.304;23.786;2023-11-21T04:16:57;3.00;3.00;0.80
44881;PMS5003;30612;38.304;23.786;2023-11-21T04:19:25;6.20;4.40;1.60
44881;PMS5003;30612;38.304;23.786;2023-11-21T04:21:52;4.40;3.60;1.60
44881;PMS5003;30612;38.304;23.786;2023-11-21T04:24:19;4.00;4.00;2.20
44881;PMS5003;30612;38.304;23.786;2023-11-21T04:26:47;1.40;1.40;1.00
44881;PMS5003;30612;38.304;23.786;2023-11-21T04:29:14;3.40;3.40;1.00
44881;PMS5003;30612;38.304;23.786;2023-11-21T04:31:42;3.80;3.80;1.00
44881;PMS5003;30612;38.304;23.786;2023-11-21T04:34:10;3.00;3.00;1.00
44881;PMS5003;30612;38.304;23.786;2023-11-21T04:36:37;1.00;1.00;0.00
44881;PMS5003;30612;38.304;23.786;2023-11-21T04:39:04;3.20;3.20;1.00
44881;PMS5003;30612;38.304;23.786;2023-11-21T04:41:33;3.60;2.20;1.00
44881;PMS5003;30612;38.304;23.786;2023-11-21T04:44:00;2.80;1.00;0.60
44881;PMS5003;30612;38.304;23.786;2023-11-21T04:46:28;6.00;2.60;1.00
44881;PMS5003;30612;38.304;23.786;2023-11-21T04:48:55;5.20;4.00;1.00
44881;PMS5003;30612;38.304;23.786;2023-11-21T04:51:22;1.00;1.00;0.60
44881;PMS5003;30612;38.304;23.786;2023-11-21T04:53:50;1.00;1.00;0.00
44881;PMS5003;30612;38.304;23.786;2023-11-21T04:56:17;0.20;0.20;0.00
44881;PMS5003;30612;38.304;23.786;2023-11-21T04:58:45;1.00;1.00;0.00
44881;PMS5003;30612;38.304;23.786;2023-11-21T05:01:12;1.80;1.00;1.00
44881;PMS5003;30612;38.304;23.786;2023-11-21T05:03:40;1.00;1.00;1.00
44881;PMS5003;30612;38.304;23.786;2023-11-21T05:06:11;3.40;1.80;0.20
44881;PMS5003;30612;38.304;23.786;2023-11-21T05:08:38;5.60;3.60;3.00
44881;PMS5003;30612;38.304;23.786;2023-11-21T05:11:06;4.00;4.00;3.00
44881;PMS5003;30612;38.304;23.786;2023-11-21T05:13:37;3.00;3.00;1.00
44881;PMS5003;30612;38.304;23.786;2023-11-21T05:16:05;4.00;4.00;1.20
44881;PMS5003;30612;38.304;23.786;2023-11-21T05:18:34;3.00;3.00;1.00
44881;PMS5003;30612;38.304;23.786;2023-11-21T05:21:01;3.80;3.80;1.00
44881;PMS5003;30612;38.304;23.786;2023-11-21T05:23:29;3.00;3.00;1.00
44881;PMS5003;30612;38.304;23.786;2023-11-21T05:25:56;3.20;3.20;1.80
44881;PMS5003;30612;38.304;23.786;2023-11-21T05:28:24;1.00;1.00;1.00
44881;PMS5003;30612;38.304;23.786;2023-11-21T05:30:51;3.00;3.00;1.00
44881;PMS5003;30612;38.304;23.786;2023-11-21T05:33:36;3.00;1.00;0.00
44881;PMS5003;30612;38.304;23.786;2023-11-21T05:36:03;4.00;4.00;1.40
44881;PMS5003;30612;38.304;23.786;2023-11-21T05:38:31;4.00;4.00;1.00
44881;PMS5003;30612;38.304;23.786;2023-11-21T05:40:58;3.40;3.40;1.80
44881;PMS5003;30612;38.304;23.786;2023-11-21T05:43:25;9.20;4.80;3.00
44881;PMS5003;30612;38.304;23.786;2023-11-21T05:45:52;3.20;1.00;0.00
44881;PMS5003;30612;38.304;23.786;2023-11-21T05:48:20;3.00;3.00;1.00
44881;PMS5003;30612;38.304;23.786;2023-11-21T05:50:47;3.20;3.00;1.00
44881;PMS5003;30612;38.304;23.786;2023-11-21T05:53:16;4.20;3.20;0.60
44881;PMS5003;30612;38.304;23.786;2023-11-21T05:55:43;3.20;2.20;1.00
44881;PMS5003;30612;38.304;23.786;2023-11-21T05:58:11;2.20;2.20;1.20
44881;PMS5003;30612;38.304;23.786;2023-11-21T06:00:40;1.20;1.20;0.20
44881;PMS5003;30612;38.304;23.786;2023-11-21T06:03:08;1.60;1.60;0.40
44881;PMS5003;30612;38.304;23.786;2023-11-21T06:05:35;1.00;0.60;0.00
44881;PMS5003;30612;38.304;23.786;2023-11-21T06:08:03;1.00;1.00;0.00
44881;PMS5003;30612;38.304;23.786;2023-11-21T06:10:30;1.00;1.00;0.00
44881;PMS5003;30612;38.304;23.786;2023-11-21T06:12:58;0.80;0.80;0.00
44881;PMS5003;30612;38.304;23.786;2023-11-21T06:15:29;1.20;1.20;0.00
44881;PMS5003;30612;38.304;23.786;2023-11-21T06:17:57;0.20;0.20;0.00
44881;PMS5003;30612;38.304;23.786;2023-11-21T06:20:25;1.00;1.00;0.00
44881;PMS5003;30612;38.304;23.786;2023-11-21T06:22:53;0.40;0.40;0.00
44881;PMS5003;30612;38.304;23.786;2023-11-21T06:25:20;1.40;0.60;0.00
44881;PMS5003;30612;38.304;23.786;2023-11-21T06:27:48;0.00;0.00;0.00
44881;PMS5003;30612;38.304;23.786;2023-11-21T06:30:15;0.00;0.00;0.00
44881;PMS5003;30612;38.304;23.786;2023-11-21T06:32:43;0.00;0.00;0.00
44881;PMS5003;30612;38.304;23.786;2023-11-21T06:35:14;1.00;1.00;0.00
44881;PMS5003;30612;38.304;23.786;2023-11-21T06:37:43;1.80;0.00;0.00
44881;PMS5003;30612;38.304;23.786;2023-11-21T06:40:19;0.00;0.00;0.00
44881;PMS5003;30612;38.304;23.786;2023-11-21T06:42:47;0.00;0.00;0.00
44881;PMS5003;30612;38.304;23.786;2023-11-21T06:45:15;1.80;1.00;0.00
44881;PMS5003;30612;38.304;23.786;2023-11-21T06:47:43;0.00;0.00;0.00
44881;PMS5003;30612;38.304;23.786;2023-11-21T06:50:11;0.60;0.60;0.00
44881;PMS5003;30612;38.304;23.786;2023-11-21T06:52:39;0.00;0.00;0.00
44881;PMS5003;30612;38.304;23.786;2023-11-21T06:55:06;0.00;0.00;0.00
44881;PMS5003;30612;38.304;23.786;2023-11-21T06:57:35;0.00;0.00;0.00
44881;PMS5003;30612;38.304;23.786;2023-11-21T07:00:03;0.00;0.00;0.00
44881;PMS5003;30612;38.304;23.786;2023-11-21T07:02:31;0.00;0.00;0.00
44881;PMS5003;30612;38.304;23.786;2023-11-21T07:04:58;0.00;0.00;0.00
44881;PMS5003;30612;38.304;23.786;2023-11-21T07:07:27;0.40;0.40;0.00
44881;PMS5003;30612;38.304;23.786;2023-11-21T07:09:54;0.00;0.00;0.00
44881;PMS5003;30612;38.304;23.786;2023-11-21T07:12:21;0.20;0.00;0.00
44881;PMS5003;30612;38.304;23.786;2023-11-21T07:14:50;0.00;0.00;0.00
44881;PMS5003;30612;38.304;23.786;2023-11-21T07:17:17;0.00;0.00;0.00
44881;PMS5003;30612;38.304;23.786;2023-11-21T07:19:44;0.00;0.00;0.00
44881;PMS5003;30612;38.304;23.786;2023-11-21T07:22:12;0.00;0.00;0.00
44881;PMS5003;30612;38.304;23.786;2023-11-21T07:24:40;0.20;0.20;0.00
44881;PMS5003;30612;38.304;23.786;2023-11-21T07:27:07;0.00;0.00;0.00
44881;PMS5003;30612;38.304;23.786;2023-11-21T07:29:35;0.60;0.60;0.00
44881;PMS5003;30612;38.304;23.786;2023-11-21T07:32:02;0.40;0.00;0.00
44881;PMS5003;30612;38.304;23.786;2023-11-21T07:34:29;0.00;0.00;0.00
44881;PMS5003;30612;38.304;23.786;2023-11-21T07:36:57;0.80;0.80;0.00
44881;PMS5003;30612;38.304;23.786;2023-11-21T07:39:24;1.00;1.00;0.00
44881;PMS5003;30612;38.304;23.786;2023-11-21T07:41:52;0.00;0.00;0.00
44881;PMS5003;30612;38.304;23.786;2023-11-21T07:44:19;0.00;0.00;0.00
44881;PMS5003;30612;38.304;23.786;2023-11-21T07:46:47;0.20;0.20;0.00
44881;PMS5003;30612;38.304;23.786;2023-11-21T07:49:16;0.60;0.00;0.00
44881;PMS5003;30612;38.304;23.786;2023-11-21T07:51:47;0.00;0.00;0.00
44881;PMS5003;30612;38.304;23.786;2023-11-21T07:54:15;0.80;0.80;0.00
44881;PMS5003;30612;38.304;23.786;2023-11-21T07:56:42;1.20;1.20;0.00
44881;PMS5003;30612;38.304;23.786;2023-11-21T07:59:09;2.00;1.00;0.80
44881;PMS5003;30612;38.304;23.786;2023-11-21T08:01:37;3.00;2.00;1.00
44881;PMS5003;30612;38.304;23.786;2023-11-21T08:04:05;2.60;2.00;0.00
44881;PMS5003;30612;38.304;23.786;2023-11-21T08:06:33;1.20;1.20;1.00
44881;PMS5003;30612;38.304;23.786;2023-11-21T08:09:01;0.20;0.20;0.00
44881;PMS5003;30612;38.304;23.786;2023-11-21T08:11:28;1.00;0.00;0.00
44881;PMS5003;30612;38.304;23.786;2023-11-21T08:13:58;1.00;1.00;0.00
44881;PMS5003;30612;38.304;23.786;2023-11-21T08:16:26;0.00;0.00;0.00
44881;PMS5003;30612;38.304;23.786;2023-11-21T08:18:54;0.00;0.00;0.00
44881;PMS5003;30612;38.304;23.786;2023-11-21T08:21:22;1.00;1.00;0.00
44881;PMS5003;30612;38.304;23.786;2023-11-21T08:23:56;1.00;1.00;0.00
44881;PMS5003;30612;38.304;23.786;2023-11-21T08:26:23;0.00;0.00;0.00
44881;PMS5003;30612;38.304;23.786;2023-11-21T08:28:50;1.00;1.00;0.00
44881;PMS5003;30612;38.304;23.786;2023-11-21T08:31:24;0.00;0.00;0.00
44881;PMS5003;30612;38.304;23.786;2023-11-21T08:33:52;0.00;0.00;0.00
44881;PMS5003;30612;38.304;23.786;2023-11-21T08:36:22;1.00;0.00;0.00
44881;PMS5003;30612;38.304;23.786;2023-11-21T08:38:52;0.00;0.00;0.00
44881;PMS5003;30612;38.304;23.786;2023-11-21T08:41:19;0.00;0.00;0.00
44881;PMS5003;30612;38.304;23.786;2023-11-21T08:43:52;0.00;0.00;0.00
44881;PMS5003;30612;38.304;23.786;2023-11-21T08:46:20;0.60;0.60;0.00
44881;PMS5003;30612;38.304;23.786;2023-11-21T08:48:48;0.20;0.20;0.00
44881;PMS5003;30612;38.304;23.786;2023-11-21T08:51:15;0.00;0.00;0.00
44881;PMS5003;30612;38.304;23.786;2023-11-21T08:53:43;0.00;0.00;0.00
44881;PMS5003;30612;38.304;23.786;2023-11-21T08:56:13;0.80;0.80;0.00
44881;PMS5003;30612;38.304;23.786;2023-11-21T08:58:41;0.80;0.80;0.00
44881;PMS5003;30612;38.304;23.786;2023-11-21T09:01:08;0.80;0.80;0.00
44881;PMS5003;30612;38.304;23.786;2023-11-21T09:03:36;0.00;0.00;0.00
44881;PMS5003;30612;38.304;23.786;2023-11-21T09:06:03;0.00;0.00;0.00
44881;PMS5003;30612;38.304;23.786;2023-11-21T09:08:31;2.60;1.60;1.00
44881;PMS5003;30612;38.304;23.786;2023-11-21T09:10:58;1.40;1.40;1.00
44881;PMS5003;30612;38.304;23.786;2023-11-21T09:13:26;1.00;1.00;0.60
44881;PMS5003;30612;38.304;23.786;2023-11-21T09:15:53;3.00;1.80;0.40
44881;PMS5003;30612;38.304;23.786;2023-11-21T09:18:20;1.00;1.00;1.00
44881;PMS5003;30612;38.304;23.786;2023-11-21T09:20:47;2.60;2.00;1.00
44881;PMS5003;30612;38.304;23.786;2023-11-21T09:23:15;2.80;2.20;1.00
44881;PMS5003;30612;38.304;23.786;2023-11-21T09:25:42;3.20;3.20;2.00
44881;PMS5003;30612;38.304;23.786;2023-11-21T09:28:13;4.00;4.00;2.00
44881;PMS5003;30612;38.304;23.786;2023-11-21T09:30:40;3.40;3.40;1.60
44881;PMS5003;30612;38.304;23.786;2023-11-21T09:33:08;3.80;3.80;2.00
44881;PMS5003;30612;38.304;23.786;2023-11-21T09:35:37;3.80;3.80;2.00
44881;PMS5003;30612;38.304;23.786;2023-11-21T09:38:05;3.20;3.20;2.00
44881;PMS5003;30612;38.304;23.786;2023-11-21T09:40:37;3.00;3.00;1.20
44881;PMS5003;30612;38.304;23.786;2023-11-21T09:43:09;3.20;2.40;2.00
44881;PMS5003;30612;38.304;23.786;2023-11-21T09:45:46;6.60;4.00;3.00
44881;PMS5003;30612;38.304;23.786;2023-11-21T09:48:15;4.00;4.00;2.20
44881;PMS5003;30612;38.304;23.786;2023-11-21T09:50:43;5.20;5.20;2.00
44881;PMS5003;30612;38.304;23.786;2023-11-21T09:55:50;6.20;3.60;2.00
44881;PMS5003;30612;38.304;23.786;2023-11-21T09:58:19;1.60;1.60;1.00
44881;PMS5003;30612;38.304;23.786;2023-11-21T10:00:55;2.80;2.80;1.00
44881;PMS5003;30612;38.304;23.786;2023-11-21T10:03:23;3.00;3.00;1.60
44881;PMS5003;30612;38.304;23.786;2023-11-21T10:05:51;3.00;3.00;1.80
44881;PMS5003;30612;38.304;23.786;2023-11-21T10:08:20;1.00;1.00;0.80
44881;PMS5003;30612;38.304;23.786;2023-11-21T10:10:51;2.00;1.80;1.00
44881;PMS5003;30612;38.304;23.786;2023-11-21T10:13:20;2.00;2.00;1.40
44881;PMS5003;30612;38.304;23.786;2023-11-21T10:15:49;2.60;2.40;1.80
44881;PMS5003;30612;38.304;23.786;2023-11-21T10:18:18;3.00;1.40;0.80
44881;PMS5003;30612;38.304;23.786;2023-11-21T10:20:45;1.00;1.00;0.20
44881;PMS5003;30612;38.304;23.786;2023-11-21T10:23:20;1.60;1.60;1.00
44881;PMS5003;30612;38.304;23.786;2023-11-21T10:25:50;2.00;2.00;1.00
44881;PMS5003;30612;38.304;23.786;2023-11-21T10:28:19;1.00;1.00;0.60
44881;PMS5003;30612;38.304;23.786;2023-11-21T10:30:48;2.40;2.20;1.80
44881;PMS5003;30612;38.304;23.786;2023-11-21T10:33:15;3.00;1.60;0.60
44881;PMS5003;30612;38.304;23.786;2023-11-21T10:35:44;2.60;2.60;1.20
44881;PMS5003;30612;38.304;23.786;2023-11-21T10:38:20;2.60;2.60;1.40
44881;PMS5003;30612;38.304;23.786;2023-11-21T10:40:50;3.00;3.00;1.60
44881;PMS5003;30612;38.304;23.786;2023-11-21T10:43:18;2.60;1.60;0.20
44881;PMS5003;30612;38.304;23.786;2023-11-21T10:45:46;2.00;2.00;1.00
44881;PMS5003;30612;38.304;23.786;2023-11-21T10:48:13;1.20;1.00;0.00
44881;PMS5003;30612;38.304;23.786;2023-11-21T10:50:45;3.00;3.00;1.00
44881;PMS5003;30612;38.304;23.786;2023-11-21T10:53:13;1.00;1.00;0.80
44881;PMS5003;30612;38.304;23.786;2023-11-21T10:55:41;2.00;2.00;1.00
44881;PMS5003;30612;38.304;23.786;2023-11-21T10:58:11;2.00;1.00;1.00
44881;PMS5003;30612;38.304;23.786;2023-11-21T11:00:40;0.80;0.60;0.00
44881;PMS5003;30612;38.304;23.786;2023-11-21T11:03:10;2.00;2.00;0.00
44881;PMS5003;30612;38.304;23.786;2023-11-21T11:05:46;2.60;1.00;1.00
44881;PMS5003;30612;38.304;23.786;2023-11-21T11:08:21;3.00;3.00;1.00
44881;PMS5003;30612;38.304;23.786;2023-11-21T11:10:54;4.40;2.60;1.00
44881;PMS5003;30612;38.304;23.786;2023-11-21T11:13:23;2.00;2.00;1.00
44881;PMS5003;30612;38.304;23.786;2023-11-21T11:15:51;3.40;2.20;2.00
44881;PMS5003;30612;38.304;23.786;2023-11-21T11:18:26;2.00;2.00;1.00
44881;PMS5003;30612;38.304;23.786;2023-11-21T11:33:51;2.00;1.40;1.00
44881;PMS5003;30612;38.304;23.786;2023-11-21T11:36:06;3.40;3.40;1.00
44881;PMS5003;30612;38.304;23.786;2023-11-21T11:38:36;4.00;4.00;2.00
44881;PMS5003;30612;38.304;23.786;2023-11-21T11:41:05;3.00;3.00;1.20
44881;PMS5003;30612;38.304;23.786;2023-11-21T11:43:33;1.60;1.60;1.00
44881;PMS5003;30612;38.304;23.786;2023-11-21T11:46:11;1.00;1.00;0.00
44881;PMS5003;30612;38.304;23.786;2023-11-21T11:48:42;1.00;1.00;0.60
44881;PMS5003;30612;38.304;23.786;2023-11-21T11:51:13;2.00;2.00;1.00
44881;PMS5003;30612;38.304;23.786;2023-11-21T11:53:41;2.00;1.60;1.00
44881;PMS5003;30612;38.304;23.786;2023-11-21T11:58:49;3.20;2.80;1.80
44881;PMS5003;30612;38.304;23.786;2023-11-21T12:01:21;3.80;3.80;2.00
44881;PMS5003;30612;38.304;23.786;2023-11-21T12:06:41;2.80;2.80;1.40
44881;PMS5003;30612;38.304;23.786;2023-11-21T12:09:17;4.40;2.60;0.60
44881;PMS5003;30612;38.304;23.786;2023-11-21T12:11:46;3.80;3.80;2.00
44881;PMS5003;30612;38.304;23.786;2023-11-21T12:14:14;6.60;5.40;2.60
44881;PMS5003;30612;38.304;23.786;2023-11-21T12:16:42;6.00;6.00;3.00
44881;PMS5003;30612;38.304;23.786;2023-11-21T12:19:12;3.20;3.20;2.80
44881;PMS5003;30612;38.304;23.786;2023-11-21T12:21:40;4.00;1.00;0.00
44881;PMS5003;30612;38.304;23.786;2023-11-21T12:24:11;4.40;3.60;2.00
44881;PMS5003;30612;38.304;23.786;2023-11-21T12:26:41;5.60;3.80;2.00
44881;PMS5003;30612;38.304;23.786;2023-11-21T12:29:09;7.20;5.60;2.20
44881;PMS5003;30612;38.304;23.786;2023-11-21T12:31:37;1.20;1.20;1.00
44881;PMS5003;30612;38.304;23.786;2023-11-21T12:34:05;2.40;1.60;0.80
44881;PMS5003;30612;38.304;23.786;2023-11-21T12:36:34;3.40;3.40;2.00
44881;PMS5003;30612;38.304;23.786;2023-11-21T12:39:02;3.00;3.00;2.00
44881;PMS5003;30612;38.304;23.786;2023-11-21T12:41:30;1.40;1.40;1.00
44881;PMS5003;30612;38.304;23.786;2023-11-21T12:43:57;2.40;1.40;0.00
44881;PMS5003;30612;38.304;23.786;2023-11-21T12:46:25;3.00;3.00;1.40
44881;PMS5003;30612;38.304;23.786;2023-11-21T12:49:00;2.00;2.00;1.00
44881;PMS5003;30612;38.304;23.786;2023-11-21T12:51:28;1.80;1.40;0.00
44881;PMS5003;30612;38.304;23.786;2023-11-21T12:53:56;1.80;1.80;0.60
44881;PMS5003;30612;38.304;23.786;2023-11-21T12:56:23;1.00;1.00;1.00
44881;PMS5003;30612;38.304;23.786;2023-11-21T12:58:50;3.20;2.00;1.00
44881;PMS5003;30612;38.304;23.786;2023-11-21T13:01:20;1.00;0.80;0.00
44881;PMS5003;30612;38.304;23.786;2023-11-21T13:03:49;2.00;2.00;1.00
44881;PMS5003;30612;38.304;23.786;2023-11-21T13:06:18;2.00;2.00;1.60
44881;PMS5003;30612;38.304;23.786;2023-11-21T13:08:46;2.00;1.00;1.00
44881;PMS5003;30612;38.304;23.786;2023-11-21T13:11:14;1.60;1.60;0.60
44881;PMS5003;30612;38.304;23.786;2023-11-21T13:13:42;1.00;1.00;0.00
44881;PMS5003;30612;38.304;23.786;2023-11-21T13:16:10;2.00;2.00;1.00
44881;PMS5003;30612;38.304;23.786;2023-11-21T13:18:38;0.00;0.00;0.00
44881;PMS5003;30612;38.304;23.786;2023-11-21T13:21:07;0.00;0.00;0.00
44881;PMS5003;30612;38.304;23.786;2023-11-21T13:23:41;1.00;1.00;0.00
44881;PMS5003;30612;38.304;23.786;2023-11-21T13:26:09;0.20;0.20;0.00
44881;PMS5003;30612;38.304;23.786;2023-11-21T13:28:36;0.00;0.00;0.00
44881;PMS5003;30612;38.304;23.786;2023-11-21T13:31:05;1.40;1.40;0.80
44881;PMS5003;30612;38.304;23.786;2023-11-21T13:33:40;1.00;1.00;0.00
44881;PMS5003;30612;38.304;23.786;2023-11-21T13:36:09;2.00;2.00;1.00
44881;PMS5003;30612;38.304;23.786;2023-11-21T13:38:37;0.80;0.80;0.00
44881;PMS5003;30612;38.304;23.786;2023-11-21T13:41:09;0.00;0.00;0.00
44881;PMS5003;30612;38.304;23.786;2023-11-21T13:43:39;2.20;1.00;0.00
44881;PMS5003;30612;38.304;23.786;2023-11-21T13:46:06;0.00;0.00;0.00
44881;PMS5003;30612;38.304;23.786;2023-11-21T13:48:44;0.00;0.00;0.00
44881;PMS5003;30612;38.304;23.786;2023-11-21T13:51:18;0.00;0.00;0.00
44881;PMS5003;30612;38.304;23.786;2023-11-21T13:53:46;1.00;1.00;0.00
44881;PMS5003;30612;38.304;23.786;2023-11-21T13:56:16;0.80;0.20;0.00
44881;PMS5003;30612;38.304;23.786;2023-11-21T13:58:51;0.00;0.00;0.00
44881;PMS5003;30612;38.304;23.786;2023-11-21T14:01:20;1.00;0.00;0.00
44881;PMS5003;30612;38.304;23.786;2023-11-21T14:04:03;0.00;0.00;0.00
44881;PMS5003;30612;38.304;23.786;2023-11-21T14:06:43;0.00;0.00;0.00
44881;PMS5003;30612;38.304;23.786;2023-11-21T14:09:21;1.00;1.00;0.00
44881;PMS5003;30612;38.304;23.786;2023-11-21T14:11:53;0.00;0.00;0.00
44881;PMS5003;30612;38.304;23.786;2023-11-21T14:14:25;0.00;0.00;0.00
44881;PMS5003;30612;38.304;23.786;2023-11-21T14:16:53;1.60;1.00;0.00
44881;PMS5003;30612;38.304;23.786;2023-11-21T14:19:22;0.80;0.80;0.00
44881;PMS5003;30612;38.304;23.786;2023-11-21T14:21:54;0.00;0.00;0.00
44881;PMS5003;30612;38.304;23.786;2023-11-21T14:24:21;0.00;0.00;0.00
44881;PMS5003;30612;38.304;23.786;2023-11-21T14:26:50;0.00;0.00;0.00
44881;PMS5003;30612;38.304;23.786;2023-11-21T14:29:18;0.20;0.20;0.00
44881;PMS5003;30612;38.304;23.786;2023-11-21T14:31:50;0.00;0.00;0.00
44881;PMS5003;30612;38.304;23.786;2023-11-21T14:34:20;1.40;0.40;0.00
44881;PMS5003;30612;38.304;23.786;2023-11-21T14:36:49;0.40;0.40;0.20